Time;durP1;ratioP1;P1;durP2;ratioP2;P2;SDS_P1;SDS_P2;PMS_P1;PMS_P2;Temp;Humidity;BMP_temperature;BMP_pressure;BME280_temperature;BME280_humidity;BME280_pressure;Samples;Min_cycle;Max_cycle;Signal;HPM_P1;HPM_P2
2023/03/08 00:03:02;;;;;;;19.20;8.10;;;;;;;0.92;100.00;98593.67;219908;1266;112005;-94
2023/03/08 00:08:02;;;;;;;18.00;8.60;;;;;;;0.91;100.00;98597.92;219597;1266;139796;-89
2023/03/08 00:13:03;;;;;;;18.90;8.90;;;;;;;0.90;100.00;98594.42;220437;1266;137779;-89
2023/03/08 00:18:06;;;;;;;17.60;8.50;;;;;;;0.91;100.00;98603.88;219241;1265;139546;-88
2023/03/08 00:23:08;;;;;;;18.10;9.00;;;;;;;0.92;100.00;98615.65;219772;1265;139004;-89
2023/03/08 00:28:09;;;;;;;17.00;8.40;;;;;;;0.91;100.00;98623.30;219263;1265;141233;-91
2023/03/08 00:33:09;;;;;;;18.70;10.30;;;;;;;0.90;100.00;98624.73;219929;1266;98001;-90
2023/03/08 00:38:10;;;;;;;18.80;9.10;;;;;;;0.90;100.00;98623.97;219288;1266;139868;-89
2023/03/08 00:43:10;;;;;;;17.20;8.80;;;;;;;0.89;100.00;98622.63;220386;1269;139034;-89
2023/03/08 00:48:11;;;;;;;16.90;8.70;;;;;;;0.87;100.00;98625.92;219498;1269;139441;-92
2023/03/08 00:53:12;;;;;;;15.70;7.60;;;;;;;0.86;100.00;98628.38;219843;1265;139214;-90
2023/03/08 00:58:12;;;;;;;15.40;7.70;;;;;;;0.84;100.00;98633.67;219260;1265;139869;-92
2023/03/08 01:03:13;;;;;;;16.50;8.00;;;;;;;0.84;100.00;98635.38;221285;1266;97937;-91
2023/03/08 01:08:15;;;;;;;17.60;8.10;;;;;;;0.83;100.00;98636.77;219402;1265;139125;-91
2023/03/08 01:13:16;;;;;;;14.60;7.30;;;;;;;0.82;100.00;98638.58;220016;1266;139549;-92
2023/03/08 01:18:17;;;;;;;14.30;6.50;;;;;;;0.81;100.00;98644.59;219156;1270;139800;-89
2023/03/08 01:23:18;;;;;;;15.20;6.80;;;;;;;0.79;100.00;98647.41;220130;1266;139657;-90
2023/03/08 01:28:18;;;;;;;14.00;6.50;;;;;;;0.76;100.00;98643.48;219464;1270;140031;-92
2023/03/08 01:33:19;;;;;;;14.40;7.30;;;;;;;0.74;100.00;98646.84;220207;1265;139032;-91
2023/03/08 01:38:20;;;;;;;14.90;6.60;;;;;;;0.70;100.00;98652.65;220102;1266;138869;-92
2023/03/08 01:43:25;;;;;;;15.60;7.50;;;;;;;0.67;100.00;98651.88;220812;1266;139480;-89
2023/03/08 01:48:32;;;;;;;13.90;6.50;;;;;;;0.65;100.00;98657.71;219633;1265;139285;-92
2023/03/08 01:53:47;;;;;;;11.50;5.70;;;;;;;0.64;100.00;98664.02;221854;1265;138095;-93
2023/03/08 01:58:54;;;;;;;15.00;6.50;;;;;;;0.62;100.00;98661.23;220512;1266;139445;-94
2023/03/08 02:03:55;;;;;;;14.60;7.30;;;;;;;0.60;100.00;98664.17;220505;1270;138991;-93
2023/03/08 02:08:57;;;;;;;15.60;7.50;;;;;;;0.56;100.00;98670.60;219937;1268;139415;-92
2023/03/08 02:14:01;;;;;;;15.50;6.70;;;;;;;0.54;100.00;98672.49;220335;1266;139434;-93
2023/03/08 02:19:10;;;;;;;14.30;6.30;;;;;;;0.52;100.00;98677.84;219923;1265;139417;-92
2023/03/08 02:59:44;;;;;;;12.60;6.00;;;;;;;0.25;100.00;98711.39;223777;1265;139084;-82
2023/03/08 03:04:45;;;;;;;15.50;6.90;;;;;;;0.22;100.00;98718.42;223813;1265;139648;-82
2023/03/08 03:09:45;;;;;;;17.40;6.70;;;;;;;0.21;100.00;98728.83;222967;1265;139592;-82
2023/03/08 03:14:45;;;;;;;13.50;6.40;;;;;;;0.20;100.00;98736.06;220867;1265;97912;-82
2023/03/08 03:19:46;;;;;;;13.10;6.80;;;;;;;0.19;100.00;98741.59;220182;1266;139634;-82
2023/03/08 03:24:49;;;;;;;13.80;7.30;;;;;;;0.16;100.00;98744.85;220887;1266;138975;-81
2023/03/08 03:29:49;;;;;;;14.90;7.10;;;;;;;0.12;100.00;98746.85;220320;1265;139447;-82
2023/03/08 03:34:49;;;;;;;16.90;6.00;;;;;;;0.08;100.00;98749.99;220907;1265;139119;-80
2023/03/08 03:39:50;;;;;;;15.70;6.90;;;;;;;0.03;100.00;98756.89;220408;1266;139354;-81
2023/03/08 03:44:50;;;;;;;16.00;7.80;;;;;;;-0.01;100.00;98761.64;220935;1269;98092;-80
2023/03/08 03:49:51;;;;;;;14.80;6.60;;;;;;;-0.08;100.00;98770.28;220340;1266;139485;-82
2023/03/08 03:54:51;;;;;;;16.00;6.50;;;;;;;-0.13;100.00;98772.52;220835;1266;139287;-82
2023/03/08 03:59:51;;;;;;;16.00;7.00;;;;;;;-0.18;100.00;98777.73;220353;1270;139465;-81
2023/03/08 04:04:52;;;;;;;15.10;6.70;;;;;;;-0.24;100.00;98781.05;221329;1265;138049;-80
2023/03/08 04:09:52;;;;;;;17.20;6.80;;;;;;;-0.28;100.00;98783.64;220217;1266;140684;-81
2023/03/08 04:14:53;;;;;;;16.60;7.60;;;;;;;-0.31;100.00;98792.11;221014;1266;98066;-81
2023/03/08 04:19:53;;;;;;;19.50;8.10;;;;;;;-0.34;100.00;98791.34;220363;1266;139522;-81
2023/03/08 04:24:54;;;;;;;16.90;6.80;;;;;;;-0.37;100.00;98794.89;220815;1266;139149;-81
2023/03/08 04:29:54;;;;;;;13.60;6.70;;;;;;;-0.38;100.00;98796.79;220340;1265;139753;-81
2023/03/08 04:34:54;;;;;;;18.20;8.10;;;;;;;-0.40;100.00;98800.11;220750;1265;140540;-82
2023/03/08 04:39:55;;;;;;;13.80;6.40;;;;;;;-0.42;100.00;98804.64;220251;1265;139198;-80
2023/03/08 04:44:55;;;;;;;17.30;7.10;;;;;;;-0.42;100.00;98811.33;220837;1268;98514;-81
2023/03/08 04:49:55;;;;;;;28.40;8.90;;;;;;;-0.45;100.00;98806.64;220331;1265;139408;-81
2023/03/08 04:54:56;;;;;;;14.10;6.30;;;;;;;-0.47;100.00;98809.96;220757;1266;140924;-80
2023/03/08 04:59:56;;;;;;;15.50;6.20;;;;;;;-0.51;100.00;98811.77;220213;1265;139932;-79
2023/03/08 05:04:57;;;;;;;17.10;7.70;;;;;;;-0.55;100.00;98816.61;220824;1265;139354;-80
2023/03/08 05:09:57;;;;;;;17.90;7.50;;;;;;;-0.59;100.00;98818.20;220210;1265;139787;-81
2023/03/08 05:14:57;;;;;;;16.00;7.30;;;;;;;-0.63;100.00;98827.17;220808;1266;247036;-79
2023/03/08 05:19:57;;;;;;;16.30;7.10;;;;;;;-0.67;100.00;98834.54;220311;1265;140202;-79
2023/03/08 05:24:58;;;;;;;15.10;6.60;;;;;;;-0.70;100.00;98839.85;220801;1265;140666;-80
2023/03/08 05:29:58;;;;;;;16.90;7.40;;;;;;;-0.74;100.00;98849.46;220280;1270;140454;-81
2023/03/08 05:34:59;;;;;;;19.50;8.50;;;;;;;-0.75;100.00;98852.30;220774;1265;140291;-79
2023/03/08 05:39:59;;;;;;;20.50;7.70;;;;;;;-0.74;100.00;98862.73;220229;1265;140126;-79
2023/03/08 05:44:59;;;;;;;16.00;8.20;;;;;;;-0.72;100.00;98871.05;220942;1265;97940;-80
2023/03/08 05:50:00;;;;;;;21.10;8.00;;;;;;;-0.69;100.00;98877.71;220600;1266;139626;-80
2023/03/08 05:55:00;;;;;;;15.80;7.20;;;;;;;-0.64;100.00;98880.48;220866;1265;139398;-80
2023/03/08 06:00:03;;;;;;;17.00;8.10;;;;;;;-0.59;100.00;98883.95;220233;1265;140743;-81
2023/03/08 06:05:04;;;;;;;18.60;7.10;;;;;;;-0.54;100.00;98889.27;220787;1268;139348;-79
2023/03/08 06:10:05;;;;;;;14.80;6.60;;;;;;;-0.49;100.00;98884.88;220250;1265;140779;-79
2023/03/08 06:15:06;;;;;;;18.60;9.40;;;;;;;-0.43;100.00;98892.70;220939;1265;97828;-80
2023/03/08 06:20:07;;;;;;;17.30;7.60;;;;;;;-0.38;100.00;98890.59;220308;1266;140602;-80
2023/03/08 06:25:07;;;;;;;13.50;7.40;;;;;;;-0.35;100.00;98899.81;220891;1266;139067;-79
2023/03/08 06:30:08;;;;;;;22.00;10.40;;;;;;;-0.31;100.00;98902.23;220315;1265;141340;-80
2023/03/08 06:35:09;;;;;;;21.30;11.60;;;;;;;-0.25;100.00;98900.39;220661;1266;139957;-80
2023/03/08 06:40:10;;;;;;;16.70;7.80;;;;;;;-0.21;100.00;98906.55;220175;1266;140072;-80
2023/03/08 06:45:11;;;;;;;25.00;13.10;;;;;;;-0.17;100.00;98918.17;220917;1265;111811;-81
2023/03/08 06:50:11;;;;;;;17.40;7.60;;;;;;;-0.14;100.00;98924.21;220293;1265;140128;-80
2023/03/08 06:55:12;;;;;;;22.50;8.50;;;;;;;-0.09;100.00;98932.44;220733;1266;138924;-81
2023/03/08 07:00:13;;;;;;;33.00;17.00;;;;;;;-0.04;100.00;98941.11;220331;1265;139315;-80
2023/03/08 07:05:15;;;;;;;41.70;23.80;;;;;;;0.01;100.00;98945.19;220858;1265;139388;-80
2023/03/08 07:10:18;;;;;;;35.60;20.80;;;;;;;0.05;100.00;98947.38;220314;1269;140380;-80
2023/03/08 07:15:21;;;;;;;34.80;23.00;;;;;;;0.08;100.00;98953.91;220911;1266;110749;-81
2023/03/08 07:20:24;;;;;;;20.00;10.10;;;;;;;0.13;100.00;98964.86;220190;1265;139479;-82
2023/03/08 07:25:24;;;;;;;22.10;13.60;;;;;;;0.17;100.00;98964.58;220797;1266;139143;-80
2023/03/08 07:30:25;;;;;;;18.20;8.90;;;;;;;0.23;100.00;98964.83;220240;1265;140679;-80
2023/03/08 07:35:25;;;;;;;17.50;7.40;;;;;;;0.30;100.00;98964.87;221136;1266;138657;-81
2023/03/08 07:40:26;;;;;;;12.70;6.90;;;;;;;0.39;100.00;98966.52;220146;1265;139985;-82
2023/03/08 07:45:26;;;;;;;13.80;7.10;;;;;;;0.47;100.00;98974.08;220780;1266;97884;-82
2023/03/08 07:50:26;;;;;;;12.50;5.10;;;;;;;0.54;100.00;98974.73;220239;1265;139360;-79
2023/03/08 07:55:27;;;;;;;12.30;5.50;;;;;;;0.63;100.00;98973.14;220789;1266;139109;-82
2023/03/08 08:00:27;;;;;;;14.30;5.80;;;;;;;0.74;100.00;98977.90;220206;1266;139429;-80
2023/03/08 08:05:27;;;;;;;15.10;5.30;;;;;;;0.85;100.00;98973.15;220721;1270;140720;-80
2023/03/08 08:10:28;;;;;;;17.30;5.90;;;;;;;0.97;100.00;98976.10;220231;1265;139275;-81
2023/03/08 08:15:29;;;;;;;13.40;5.00;;;;;;;1.08;100.00;98976.23;220699;1268;97872;-82
2023/03/08 08:20:36;;;;;;;9.90;4.40;;;;;;;1.22;100.00;98974.63;220069;1270;139306;-82
2023/03/08 08:25:40;;;;;;;12.00;4.30;;;;;;;1.29;100.00;98976.99;220786;1269;138771;-81
2023/03/08 08:31:00;;;;;;;11.90;4.60;;;;;;;1.38;100.00;98976.73;220167;1266;140473;-81
2023/03/08 08:36:06;;;;;;;13.00;5.10;;;;;;;1.49;100.00;98982.11;220082;1265;139996;-82
2023/03/08 08:41:09;;;;;;;8.00;4.10;;;;;;;1.57;100.00;98987.95;220434;1269;139842;-86
2023/03/08 08:46:11;;;;;;;13.80;5.80;;;;;;;1.66;100.00;98991.18;219980;1269;139483;-83
2023/03/08 08:51:14;;;;;;;13.00;5.20;;;;;;;1.62;100.00;98991.55;220495;1266;97853;-84
2023/03/08 08:56:21;;;;;;;23.90;6.50;;;;;;;1.57;100.00;98988.26;220035;1270;139851;-84
2023/03/08 09:01:28;;;;;;;15.20;6.00;;;;;;;1.55;100.00;98989.30;220479;1266;138952;-86
2023/03/08 09:06:29;;;;;;;17.50;6.40;;;;;;;1.57;100.00;98995.45;219932;1266;139458;-84
2023/03/08 09:11:31;;;;;;;12.70;6.90;;;;;;;1.63;100.00;98997.01;220631;1265;139475;-86
2023/03/08 09:16:34;;;;;;;13.40;5.70;;;;;;;1.69;100.00;99000.87;219968;1270;139389;-88
2023/03/08 09:21:35;;;;;;;13.50;5.70;;;;;;;1.74;100.00;99009.51;221018;1266;104975;-88
2023/03/08 09:26:36;;;;;;;21.50;6.20;;;;;;;1.74;100.00;99014.22;219995;1266;139651;-92
2023/03/08 09:31:38;;;;;;;15.30;6.40;;;;;;;1.74;100.00;99015.85;220639;1266;139668;-87
2023/03/08 09:36:39;;;;;;;11.80;5.80;;;;;;;1.75;100.00;99011.07;220189;1267;139415;-88
2023/03/08 09:41:47;;;;;;;14.10;7.40;;;;;;;1.77;100.00;99004.55;220647;1266;139089;-88
2023/03/08 09:46:55;;;;;;;14.50;5.70;;;;;;;1.85;100.00;99013.31;220067;1266;139923;-90
2023/03/08 09:52:09;;;;;;;18.70;7.20;;;;;;;1.91;100.00;99002.59;220638;1265;139005;-88
2023/03/08 09:57:20;;;;;;;14.40;5.70;;;;;;;2.03;100.00;98993.64;220055;1265;139469;-88
2023/03/08 10:02:46;;;;;;;12.30;4.30;;;;;;;2.14;100.00;98989.85;223691;1266;139178;-90
2023/03/08 10:08:35;;;;;;;15.60;5.90;;;;;;;2.32;100.00;98983.01;223123;1266;139848;-89
2023/03/08 10:13:38;;;;;;;13.80;5.40;;;;;;;2.57;99.31;98963.88;223627;1265;139539;-88
2023/03/08 10:18:55;;;;;;;15.20;5.50;;;;;;;2.77;97.39;98958.34;223204;1266;139154;-88
2023/03/08 10:24:03;;;;;;;11.60;5.20;;;;;;;2.88;97.39;98962.37;223656;1266;139358;-88
2023/03/08 10:29:04;;;;;;;11.50;4.10;;;;;;;2.97;97.44;98959.42;223026;1269;141474;-83
2023/03/08 10:34:07;;;;;;;11.60;4.00;;;;;;;3.10;97.99;98950.24;223823;1266;138835;-85
2023/03/08 10:39:10;;;;;;;23.60;9.00;;;;;;;3.25;97.74;98946.22;223377;1267;139280;-87
2023/03/08 10:44:29;;;;;;;20.50;6.70;;;;;;;3.37;94.79;98951.92;223669;1268;138816;-84
2023/03/08 10:49:29;;;;;;;17.40;6.20;;;;;;;3.34;95.15;98944.19;222962;1270;139628;-83
2023/03/08 10:54:30;;;;;;;12.10;5.20;;;;;;;3.44;96.50;98942.56;223687;1266;139349;-82
2023/03/08 10:59:48;;;;;;;20.30;5.70;;;;;;;3.65;97.64;98942.48;222704;1265;139192;-85
2023/03/08 11:04:54;;;;;;;13.80;6.10;;;;;;;3.78;95.30;98932.87;220452;1266;139877;-85
2023/03/08 11:10:15;;;;;;;12.70;6.30;;;;;;;3.86;96.18;98935.88;220234;1266;139071;-84
2023/03/08 11:15:19;;;;;;;14.60;5.90;;;;;;;3.95;95.66;98930.23;220657;1270;98185;-83
2023/03/08 11:20:31;;;;;;;14.50;6.00;;;;;;;4.04;94.60;98929.27;220017;1269;138761;-84
2023/03/08 11:25:42;;;;;;;16.30;6.00;;;;;;;4.04;93.66;98924.51;220645;1266;138791;-84
2023/03/08 11:31:16;;;;;;;15.10;5.70;;;;;;;4.02;92.48;98918.66;220271;1270;139217;-83
2023/03/08 11:36:28;;;;;;;15.30;6.70;;;;;;;3.96;91.39;98912.59;220203;1266;139522;-85
2023/03/08 11:41:38;;;;;;;13.70;5.20;;;;;;;4.02;91.62;98906.60;220557;1269;138912;-83
2023/03/08 11:46:56;;;;;;;11.10;4.60;;;;;;;4.04;89.98;98900.41;220084;1266;139171;-84
2023/03/08 11:52:21;;;;;;;17.60;5.40;;;;;;;4.04;88.71;98898.15;220593;1266;138821;-84
2023/03/08 11:57:28;;;;;;;11.60;4.30;;;;;;;4.08;88.99;98901.77;220180;1265;139201;-84
2023/03/08 12:02:35;;;;;;;15.10;5.20;;;;;;;4.11;88.41;98897.63;220370;1270;138793;-84
2023/03/08 12:07:44;;;;;;;14.40;5.10;;;;;;;4.17;88.51;98892.71;219906;1266;138836;-84
2023/03/08 12:13:00;;;;;;;12.00;6.20;;;;;;;4.33;88.96;98886.91;220775;1266;139420;-86
2023/03/08 12:18:12;;;;;;;10.10;4.50;;;;;;;4.48;86.97;98882.33;220128;1266;139703;-83
2023/03/08 12:23:27;;;;;;;14.00;5.10;;;;;;;4.48;85.05;98873.45;220521;1266;139352;-84
2023/03/08 12:28:39;;;;;;;11.80;6.20;;;;;;;4.38;85.17;98866.65;220084;1271;139602;-83
2023/03/08 12:33:40;;;;;;;19.40;8.60;;;;;;;4.39;86.14;98860.59;220741;1270;112157;-85
2023/03/08 12:38:44;;;;;;;15.10;7.40;;;;;;;4.35;85.18;98851.36;220118;1270;139270;-86
2023/03/08 12:43:45;;;;;;;18.40;7.80;;;;;;;4.24;85.80;98844.48;220628;1269;139021;-84
2023/03/08 12:48:47;;;;;;;16.60;8.40;;;;;;;4.24;86.18;98836.46;220204;1269;139993;-85
2023/03/08 12:53:51;;;;;;;20.00;8.60;;;;;;;4.23;85.23;98828.22;220906;1269;139175;-86
2023/03/08 12:59:01;;;;;;;18.90;7.50;;;;;;;4.28;85.49;98827.02;220270;1265;139027;-86
2023/03/08 13:04:06;;;;;;;24.60;9.10;;;;;;;4.26;84.87;98820.16;220652;1267;97985;-84
2023/03/08 13:10:03;;;;;;;17.80;8.10;;;;;;;4.32;84.90;98812.35;220283;1269;138952;-83
2023/03/08 13:15:22;;;;;;;25.60;10.20;;;;;;;4.31;84.60;98806.51;220768;1270;137793;-82
2023/03/08 13:20:38;;;;;;;22.60;11.30;;;;;;;4.30;84.48;98815.36;220159;1267;140185;-83
2023/03/08 13:26:01;;;;;;;22.10;9.60;;;;;;;4.30;85.33;98809.37;220691;1269;138972;-82
2023/03/08 13:31:11;;;;;;;21.40;8.50;;;;;;;4.22;83.23;98805.71;220261;1270;139164;-85
2023/03/08 13:36:28;;;;;;;21.20;9.90;;;;;;;4.15;83.42;98805.96;220053;1272;138994;-83
2023/03/08 13:41:40;;;;;;;15.90;8.50;;;;;;;4.14;84.42;98803.63;220681;1269;98129;-83
2023/03/08 13:46:43;;;;;;;16.30;7.80;;;;;;;4.15;83.54;98799.35;220056;1267;138955;-83
2023/03/08 13:51:47;;;;;;;15.90;8.10;;;;;;;4.06;82.74;98792.34;223778;1265;96095;-83
2023/03/08 13:56:52;;;;;;;16.40;8.20;;;;;;;3.93;83.08;98798.11;220753;1267;139004;-83
2023/03/08 14:01:53;;;;;;;20.70;8.40;;;;;;;3.85;83.43;98791.88;220708;1265;138719;-82
2023/03/08 14:06:56;;;;;;;19.00;8.50;;;;;;;3.89;84.27;98790.98;220169;1269;139455;-83
2023/03/08 14:12:06;;;;;;;17.80;7.20;;;;;;;3.89;83.40;98790.05;220591;1270;139770;-82
2023/03/08 14:17:18;;;;;;;20.10;8.60;;;;;;;3.92;83.64;98789.70;220229;1266;139233;-82
2023/03/08 14:22:19;;;;;;;17.80;8.00;;;;;;;3.93;83.11;98786.13;220730;1267;139143;-84
2023/03/08 14:27:19;;;;;;;14.10;7.40;;;;;;;3.89;82.10;98796.96;220399;1267;138967;-83
2023/03/08 14:32:52;;;;;;;20.30;8.30;;;;;;;3.84;82.60;98791.40;220758;1267;139174;-82
2023/03/08 14:37:57;;;;;;;22.30;8.00;;;;;;;3.92;83.36;98785.57;220097;1269;139266;-82
2023/03/08 14:43:04;;;;;;;18.20;8.80;;;;;;;3.90;82.79;98777.23;220962;1270;139577;-84
2023/03/08 14:48:16;;;;;;;16.20;8.50;;;;;;;3.85;82.81;98774.15;220298;1267;139636;-82
2023/03/08 14:53:24;;;;;;;16.50;8.10;;;;;;;3.84;83.64;98766.05;220868;1267;139461;-82
2023/03/08 14:58:28;;;;;;;16.10;8.10;;;;;;;3.88;83.85;98758.48;220108;1267;139733;-81
2023/03/08 15:03:31;;;;;;;17.10;8.40;;;;;;;3.95;84.35;98753.02;220628;1265;97885;-81
2023/03/08 15:08:31;;;;;;;19.60;9.20;;;;;;;3.95;83.27;98748.45;220036;1267;139317;-81
2023/03/08 15:13:32;;;;;;;20.00;9.40;;;;;;;3.88;83.69;98748.53;220853;1265;138939;-82
2023/03/08 15:18:32;;;;;;;20.30;9.40;;;;;;;3.79;83.57;98745.70;220202;1267;139134;-82
2023/03/08 15:23:37;;;;;;;20.50;10.40;;;;;;;3.74;83.79;98743.09;220700;1269;139345;-81
2023/03/08 15:28:37;;;;;;;22.80;10.20;;;;;;;3.67;83.80;98739.66;223136;1266;139905;-81
2023/03/08 15:33:38;;;;;;;17.90;9.70;;;;;;;3.56;84.66;98738.29;223863;1266;96133;-82
2023/03/08 15:38:38;;;;;;;19.60;10.60;;;;;;;3.46;85.33;98745.10;223256;1267;139005;-83
2023/03/08 15:43:39;;;;;;;25.90;11.80;;;;;;;3.32;86.80;98743.44;223734;1266;138031;-84
2023/03/08 15:48:44;;;;;;;21.70;12.30;;;;;;;3.16;88.62;98740.67;223144;1266;139477;-82
2023/03/08 15:53:45;;;;;;;22.10;12.20;;;;;;;3.03;89.56;98738.33;223607;1269;139024;-82
2023/03/08 15:58:45;;;;;;;30.60;15.60;;;;;;;2.94;90.79;98736.10;223193;1267;139363;-82
2023/03/08 16:03:46;;;;;;;33.20;16.10;;;;;;;2.84;92.23;98737.59;223953;1265;95871;-82
2023/03/08 16:08:46;;;;;;;26.70;14.60;;;;;;;2.73;93.49;98737.11;223145;1266;140188;-82
2023/03/08 16:13:49;;;;;;;36.60;18.40;;;;;;;2.65;94.40;98727.38;223846;1265;139344;-81
2023/03/08 16:18:50;;;;;;;36.40;17.50;;;;;;;2.59;95.28;98724.17;223083;1265;139786;-82
2023/03/08 16:23:50;;;;;;;35.60;17.60;;;;;;;2.59;95.85;98718.05;223673;1265;139385;-81
2023/03/08 16:28:51;;;;;;;35.50;17.30;;;;;;;2.57;96.54;98711.90;223068;1266;139466;-83
2023/03/08 16:33:51;;;;;;;39.30;19.10;;;;;;;2.53;96.84;98707.10;223767;1266;96121;-82
2023/03/08 16:38:52;;;;;;;37.80;19.10;;;;;;;2.50;97.20;98706.38;223013;1266;138835;-82
2023/03/08 16:43:53;;;;;;;31.70;17.00;;;;;;;2.44;97.72;98706.04;223811;1265;138891;-83
2023/03/08 16:48:55;;;;;;;32.70;18.70;;;;;;;2.38;98.00;98702.46;220832;1270;140055;-83
2023/03/08 16:54:36;;;;;;;39.10;19.10;;;;;;;2.30;98.78;98701.23;220469;1269;139635;-83
2023/03/08 16:59:39;;;;;;;33.90;16.90;;;;;;;2.18;99.38;98697.55;220038;1269;139805;-83
2023/03/08 17:04:40;;;;;;;27.40;14.90;;;;;;;2.11;99.88;98690.23;220754;1270;139547;-83
2023/03/08 17:09:40;;;;;;;34.90;16.70;;;;;;;2.10;99.99;98684.01;220099;1266;139755;-82
2023/03/08 17:14:42;;;;;;;38.60;18.10;;;;;;;2.08;99.96;98687.24;218039;1265;3321830;-82
2023/03/08 17:19:45;;;;;;;41.20;22.10;;;;;;;2.07;100.00;98686.74;219898;1267;139851;-83
2023/03/08 17:24:46;;;;;;;36.70;20.10;;;;;;;1.99;100.00;98679.95;220395;1266;139774;-83
2023/03/08 17:29:47;;;;;;;40.70;21.20;;;;;;;1.96;100.00;98680.38;219868;1270;139442;-83
2023/03/08 17:34:48;;;;;;;51.90;25.90;;;;;;;1.89;100.00;98676.85;220609;1266;139464;-83
2023/03/08 17:39:50;;;;;;;107.80;44.30;;;;;;;1.86;100.00;98679.82;220237;1266;139440;-83
2023/03/08 17:44:52;;;;;;;88.70;37.20;;;;;;;1.82;100.00;98675.65;220755;1266;139353;-84
2023/03/08 17:49:52;;;;;;;57.30;28.20;;;;;;;1.79;100.00;98675.36;219936;1269;139490;-83
2023/03/08 17:54:56;;;;;;;57.60;25.30;;;;;;;1.72;100.00;98674.31;220638;1269;139482;-84
2023/03/08 17:59:57;;;;;;;65.60;29.00;;;;;;;1.66;100.00;98671.95;220113;1265;139478;-84
2023/03/08 18:04:58;;;;;;;55.00;25.50;;;;;;;1.61;100.00;98672.93;220609;1267;139804;-83
2023/03/08 18:10:00;;;;;;;63.60;29.30;;;;;;;1.57;100.00;98671.15;220180;1266;139314;-83
2023/03/08 18:15:01;;;;;;;52.50;25.80;;;;;;;1.52;100.00;98670.14;220579;1266;139228;-84
2023/03/08 18:20:04;;;;;;;50.70;25.70;;;;;;;1.46;100.00;98661.51;219935;1266;139564;-84
2023/03/08 18:25:05;;;;;;;51.20;24.70;;;;;;;1.41;100.00;98654.83;220494;1265;139157;-84
2023/03/08 18:30:06;;;;;;;63.70;29.70;;;;;;;1.38;100.00;98655.46;220004;1267;139348;-83
2023/03/08 18:35:07;;;;;;;74.70;31.90;;;;;;;1.38;100.00;98653.61;220610;1269;139226;-84
2023/03/08 18:40:10;;;;;;;71.30;31.80;;;;;;;1.33;100.00;98647.80;220195;1265;139082;-84
2023/03/08 18:45:11;;;;;;;60.70;30.00;;;;;;;1.30;100.00;98640.85;220692;1265;139183;-83
2023/03/08 18:50:12;;;;;;;58.20;27.00;;;;;;;1.29;100.00;98639.67;220336;1265;140298;-83
2023/03/08 18:55:13;;;;;;;53.80;25.00;;;;;;;1.28;100.00;98636.86;220739;1266;140119;-82
2023/03/08 19:00:14;;;;;;;49.50;22.70;;;;;;;1.20;100.00;98633.84;220111;1266;139886;-82
2023/03/08 19:05:15;;;;;;;47.40;22.00;;;;;;;1.09;100.00;98621.09;220832;1266;139339;-83
2023/03/08 19:10:17;;;;;;;46.20;20.90;;;;;;;1.04;100.00;98629.90;220203;1265;139374;-83
2023/03/08 19:15:17;;;;;;;46.00;20.10;;;;;;;1.02;100.00;98624.59;220718;1265;139157;-83
2023/03/08 19:20:18;;;;;;;41.60;19.30;;;;;;;1.03;100.00;98621.05;220337;1266;139830;-85
2023/03/08 19:25:21;;;;;;;38.20;18.50;;;;;;;1.05;100.00;98612.66;220668;1266;139308;-84
2023/03/08 19:30:23;;;;;;;68.60;36.00;;;;;;;1.04;100.00;98609.39;220258;1266;140335;-84
2023/03/08 19:35:23;;;;;;;42.30;22.90;;;;;;;1.01;100.00;98605.40;220678;1266;139870;-86
2023/03/08 19:40:24;;;;;;;44.60;22.60;;;;;;;0.99;100.00;98604.58;220229;1265;139180;-85
2023/03/08 19:45:24;;;;;;;43.40;20.60;;;;;;;1.00;100.00;98601.88;220798;1266;139513;-86
2023/03/08 19:50:31;;;;;;;45.30;20.90;;;;;;;0.98;100.00;98601.77;220010;1265;140241;-86
2023/03/08 19:55:32;;;;;;;67.10;27.30;;;;;;;0.95;100.00;98596.76;220722;1266;139319;-85
2023/03/08 20:00:32;;;;;;;51.50;22.80;;;;;;;0.94;100.00;98601.85;220275;1266;139397;-88
2023/03/08 20:05:40;;;;;;;44.20;20.20;;;;;;;0.93;100.00;98594.88;220493;1269;139197;-86
2023/03/08 20:10:40;;;;;;;42.90;19.10;;;;;;;0.92;100.00;98593.90;219955;1265;139303;-86
2023/03/08 20:15:41;;;;;;;45.40;20.50;;;;;;;0.91;100.00;98594.75;220663;1266;97806;-88
2023/03/08 20:20:43;;;;;;;52.90;22.40;;;;;;;0.91;100.00;98586.69;220111;1265;139459;-90
2023/03/08 20:25:44;;;;;;;51.10;23.70;;;;;;;0.88;100.00;98580.60;220604;1265;139713;-88
2023/03/08 20:30:44;;;;;;;47.70;23.10;;;;;;;0.88;100.00;98589.52;220016;1266;139337;-89
2023/03/08 20:36:00;;;;;;;45.40;20.40;;;;;;;0.86;100.00;98592.17;220560;1266;139696;-88
2023/03/08 20:41:08;;;;;;;40.90;18.30;;;;;;;0.86;100.00;98599.29;220214;1266;139943;-87
2023/03/08 20:46:10;;;;;;;45.50;20.90;;;;;;;0.85;100.00;98600.20;220084;1265;139680;-91
2023/03/08 20:51:16;;;;;;;43.00;20.50;;;;;;;0.84;100.00;98600.79;223488;1265;139340;-89
2023/03/08 20:56:18;;;;;;;47.40;20.10;;;;;;;0.84;100.00;98594.91;223065;1265;139688;-89
2023/03/08 21:01:22;;;;;;;45.00;20.90;;;;;;;0.81;100.00;98593.02;223705;1266;139113;-87
2023/03/08 21:06:25;;;;;;;45.50;19.90;;;;;;;0.82;100.00;98578.80;220167;1265;139459;-89
2023/03/08 21:11:26;;;;;;;42.40;19.00;;;;;;;0.80;100.00;98570.55;220551;1266;139890;-91
2023/03/08 21:16:28;;;;;;;40.60;18.30;;;;;;;0.75;100.00;98562.33;220149;1267;139725;-89
2023/03/08 21:21:33;;;;;;;41.50;20.60;;;;;;;0.76;100.00;98572.16;220476;1266;139333;-90
2023/03/08 21:26:34;;;;;;;49.90;20.60;;;;;;;0.73;100.00;98566.23;220180;1266;139577;-90
2023/03/08 21:31:38;;;;;;;46.10;22.50;;;;;;;0.72;100.00;98564.29;221267;1265;139240;-88
2023/03/08 21:36:39;;;;;;;41.50;20.10;;;;;;;0.72;100.00;98563.96;220402;1266;139440;-89
2023/03/08 21:41:42;;;;;;;50.20;22.50;;;;;;;0.74;100.00;98568.40;221353;1266;139141;-85
2023/03/08 21:46:42;;;;;;;44.70;20.90;;;;;;;0.73;100.00;98563.98;220472;1266;139283;-89
2023/03/08 21:51:43;;;;;;;53.50;26.60;;;;;;;0.71;100.00;98558.70;220777;1266;97901;-88
2023/03/08 21:56:43;;;;;;;59.10;25.20;;;;;;;0.69;100.00;98552.38;220144;1265;139457;-90
2023/03/08 22:01:47;;;;;;;56.30;23.60;;;;;;;0.66;100.00;98555.98;220815;1265;139252;-89
2023/03/08 22:06:47;;;;;;;54.70;23.60;;;;;;;0.65;100.00;98558.80;219966;1266;139415;-89
2023/03/08 22:11:47;;;;;;;48.50;22.10;;;;;;;0.65;100.00;98554.77;220732;1265;139281;-88
2023/03/08 22:16:48;;;;;;;52.10;22.90;;;;;;;0.65;100.00;98557.11;220169;1266;139240;-89
2023/03/08 22:21:48;;;;;;;72.50;30.90;;;;;;;0.65;100.00;98555.40;220858;1265;97863;-89
2023/03/08 22:26:49;;;;;;;55.40;24.80;;;;;;;0.64;100.00;98558.16;220044;1265;139311;-89
2023/03/08 22:31:49;;;;;;;57.80;24.40;;;;;;;0.63;100.00;98554.98;220531;1265;140289;-89
2023/03/08 22:36:50;;;;;;;55.70;23.50;;;;;;;0.61;100.00;98550.60;220166;1265;140017;-87
2023/03/08 22:41:50;;;;;;;53.50;23.50;;;;;;;0.61;100.00;98543.80;220549;1266;139729;-88
2023/03/08 22:46:51;;;;;;;55.80;23.90;;;;;;;0.61;100.00;98544.04;220170;1266;139492;-88
2023/03/08 22:51:51;;;;;;;46.40;23.80;;;;;;;0.61;100.00;98546.88;220868;1265;97837;-87
2023/03/08 22:56:52;;;;;;;51.90;24.40;;;;;;;0.58;100.00;98553.02;220209;1266;139545;-87
2023/03/08 23:01:53;;;;;;;44.10;20.70;;;;;;;0.58;100.00;98548.54;220758;1265;139874;-87
2023/03/08 23:06:53;;;;;;;43.10;19.70;;;;;;;0.57;100.00;98555.01;220105;1269;140061;-86
2023/03/08 23:11:54;;;;;;;57.70;24.30;;;;;;;0.58;100.00;98553.71;220831;1266;139799;-87
2023/03/08 23:16:54;;;;;;;65.70;28.60;;;;;;;0.58;100.00;98549.77;220352;1266;140019;-87
2023/03/08 23:21:54;;;;;;;58.60;22.90;;;;;;;0.58;100.00;98543.66;220836;1265;97903;-85
2023/03/08 23:27:00;;;;;;;52.00;22.60;;;;;;;0.58;100.00;98544.81;220331;1265;139448;-87
2023/03/08 23:32:01;;;;;;;52.00;22.00;;;;;;;0.60;100.00;98550.42;221069;1266;139155;-89